Airfield :
LOGIN :

Register | Disclaimer

   EN    FR    IT 

 










Legend :    VFR   Marginal VFR   IFR   Intensive IFR   Very Intensive IFR
Visi :
Ceiling :
>= 8 km
>= 3000ft
5 to 8 km
1000 to 3000 ft
1500m to 5 km
500 to 1000 ft
800 to 1500m
200 to 500 ft
< 800m
< 200 ft
Symbols :   Thunderstorms  Fog  Heavy snow  Heavy precipitations  Wind > 20 kt
SIGMETs :     Misc.  Thunderstorms  Icing  Turbulence  Mountain Waves  Volcanic Ashes







- Airport Elevation : 93 ft
- IATA code : HDF


EDAH - Heringsdorf

CURRENT METAR :
  • 301350Z 19006KT 9999 BKN018 12/09 Q1022

EXPIRED METARs :
  • 301320Z 19007KT 160V220 9999 BKN023 13/09 Q1022
  • 301250Z 20007KT 150V230 9999 BKN016 12/09 Q1023
  • 301220Z 18007KT 150V210 9999 BKN012 11/09 Q1023
  • 301150Z 14005KT 6000 OVC013 10/09 Q1023
  • 301120Z 15005KT 120V180 5000 BKN010 10/08 Q1024

TAF TAF EDAH
Valid from the 30 at 12:00 until the 30 at 21:00 UTC


301100Z 3012/3021 17005KT 5000 BR BKN012
PROB30
TEMPO 3012/3015 2500 -RA BR BKN004
BECMG 3015/3017 SCT012 BKN030
No reported NOTAMs for that airfield.



MET'MAP, your aeronautical weather chart ! - Copyright ORBIFLY December 2007 - Disclaimer

ORBIFLY MET'MAP TEAM :

Programming & Development : Alexandra Zaïnal
Concept & Development : Baudouin d'Aumeries
Co-Development & Prog : Marc-Olivier Méhu
Technical & hardware support : Manuel Goepfert

Contact : metmap@orbifly.com




SOURCES & CREDITS :

   NOAA